Time;durP1;ratioP1;P1;durP2;ratioP2;P2;SDS_P1;SDS_P2;PMS_P1;PMS_P2;Temp;Humidity;BMP_temperature;BMP_pressure;BME280_temperature;BME280_humidity;BME280_pressure;Samples;Min_cycle;Max_cycle;Signal;HPM_P1;HPM_P2
2022/11/05 00:09:30;;;;;;;;;;;;;;;8.67;100.00;99246.59;4979595;28;19964;-80
2022/11/05 00:17:28;;;;;;;;;;;;;;;8.58;100.00;99250.00;4983538;28;19926;-79
2022/11/05 00:19:53;;;;;;;;;;;;;;;8.55;100.00;99239.06;4984165;28;21139;-80
2022/11/05 00:25:16;;;;;;;;;;;;;;;8.48;100.00;99250.34;4984365;28;19921;-80
2022/11/05 00:27:44;;;;;;;;;;;;;;;8.45;100.00;99263.06;4982387;28;19928;-79
2022/11/05 00:30:10;;;;;;;;;;;;;;;8.43;100.00;99259.97;4981709;28;20335;-80
2022/11/05 00:32:36;;;;;;;;;;;;;;;8.40;100.00;99256.09;4983263;28;20033;-80
2022/11/05 00:35:02;;;;;;;;;;;;;;;8.37;100.00;99264.50;4983699;28;19921;-79
2022/11/05 00:37:27;;;;;;;;;;;;;;;8.36;100.00;99265.72;4982260;28;19925;-80
2022/11/05 00:39:52;;;;;;;;;;;;;;;8.35;100.00;99273.22;4984207;28;20012;-80
2022/11/05 00:45:02;;;;;;;;;;;;;;;8.28;100.00;99265.13;4982889;28;19960;-79
2022/11/05 00:50:11;;;;;;;;;;;;;;;8.25;100.00;99271.50;4983167;28;19917;-79
2022/11/05 00:52:55;;;;;;;;;;;;;;;8.21;100.00;99281.88;4982881;28;20011;-80
2022/11/05 00:55:28;;;;;;;;;;;;;;;8.16;100.00;99282.44;4981787;28;19926;-79
2022/11/05 00:57:54;;;;;;;;;;;;;;;8.13;100.00;99266.72;4982468;28;19925;-80
2022/11/05 01:00:20;;;;;;;;;;;;;;;8.12;100.00;99272.72;4982836;28;19921;-79
2022/11/05 01:02:45;;;;;;;;;;;;;;;8.15;100.00;99280.88;4982620;28;20394;-79
2022/11/05 01:05:11;;;;;;;;;;;;;;;8.13;100.00;99277.78;4981928;28;19918;-79
2022/11/05 01:07:36;;;;;;;;;;;;;;;8.13;100.00;99286.06;4982175;28;19925;-79
2022/11/05 01:10:02;;;;;;;;;;;;;;;8.15;100.00;99291.16;4982445;28;21296;-79
2022/11/05 01:12:27;;;;;;;;;;;;;;;8.14;100.00;99306.19;4983102;28;19928;-81
2022/11/05 01:14:53;;;;;;;;;;;;;;;8.13;100.00;99302.63;4982480;28;19925;-80
2022/11/05 01:17:18;;;;;;;;;;;;;;;8.13;100.00;99288.81;4975752;28;20021;-80
2022/11/05 01:19:44;;;;;;;;;;;;;;;8.14;100.00;99300.66;4981744;28;20401;-81
2022/11/05 01:22:09;;;;;;;;;;;;;;;8.13;100.00;99296.38;4980898;28;20437;-80
2022/11/05 01:24:34;;;;;;;;;;;;;;;8.11;100.00;99299.56;4981176;28;20346;-80
2022/11/05 01:27:00;;;;;;;;;;;;;;;8.10;100.00;99288.94;4981341;28;20019;-80
2022/11/05 01:29:25;;;;;;;;;;;;;;;8.12;100.00;99290.06;4982837;28;19918;-80
2022/11/05 01:31:50;;;;;;;;;;;;;;;8.13;100.00;99294.34;4981522;28;20380;-80
2022/11/05 01:34:16;;;;;;;;;;;;;;;8.11;100.00;99288.50;4981727;28;20474;-81
2022/11/05 01:36:41;;;;;;;;;;;;;;;8.09;100.00;99290.91;4980826;28;20454;-80
2022/11/05 01:39:06;;;;;;;;;;;;;;;8.08;100.00;99288.59;4990597;28;20478;-81
2022/11/05 01:41:32;;;;;;;;;;;;;;;8.07;100.00;99287.06;4993632;28;20291;-81
2022/11/05 01:44:00;;;;;;;;;;;;;;;8.06;100.00;99283.50;4992396;28;19976;-81
2022/11/05 01:46:26;;;;;;;;;;;;;;;8.07;100.00;99287.84;4992992;28;19921;-81
2022/11/05 01:48:52;;;;;;;;;;;;;;;8.06;100.00;99289.03;4992819;28;19917;-81
2022/11/05 01:51:18;;;;;;;;;;;;;;;8.04;100.00;99283.19;4992979;28;19913;-81
2022/11/05 01:53:43;;;;;;;;;;;;;;;8.05;100.00;99286.72;4994105;28;20290;-81
2022/11/05 01:56:08;;;;;;;;;;;;;;;8.04;100.00;99294.25;4993696;28;19937;-81
2022/11/05 01:58:52;;;;;;;;;;;;;;;8.02;100.00;99285.59;4992321;28;19917;-81
2022/11/05 02:01:18;;;;;;;;;;;;;;;8.04;100.00;99291.47;5243893;23;19930;-81
2022/11/05 02:03:44;;;;;;;;;;;;;;;8.08;100.00;99291.38;5007041;23;19944;-82
2022/11/05 02:06:09;;;;;;;;;;;;;;;8.05;100.00;99289.50;4986199;28;19916;-82
2022/11/05 02:08:45;;;;;;;;;;;;;;;8.09;100.00;99298.44;5015295;28;19917;-82
2022/11/05 02:11:14;;;;;;;;;;;;;;;8.10;100.00;99299.97;4986735;28;20413;-82
2022/11/05 02:13:39;;;;;;;;;;;;;;;8.11;100.00;99296.78;4993144;28;20335;-81
2022/11/05 02:16:08;;;;;;;;;;;;;;;8.09;100.00;99299.19;4992520;28;19988;-82
2022/11/05 02:18:37;;;;;;;;;;;;;;;8.11;100.00;99294.03;4946082;28;19918;-82
2022/11/05 02:21:18;;;;;;;;;;;;;;;8.09;100.00;99287.41;4953888;28;19940;-82
2022/11/05 02:24:00;;;;;;;;;;;;;;;8.10;100.00;99309.03;4959579;28;19918;-82
2022/11/05 02:26:49;;;;;;;;;;;;;;;8.11;100.00;99302.31;4976564;28;19918;-82
2022/11/05 02:29:32;;;;;;;;;;;;;;;8.11;100.00;99310.59;4999622;28;19929;-81
2022/11/05 02:32:07;;;;;;;;;;;;;;;8.08;100.00;99305.97;4993820;28;19917;-82
2022/11/05 02:34:34;;;;;;;;;;;;;;;8.12;100.00;99303.88;5009529;28;19917;-82
2022/11/05 02:37:00;;;;;;;;;;;;;;;8.08;100.00;99307.94;4962001;28;19965;-81
2022/11/05 02:39:44;;;;;;;;;;;;;;;8.08;100.00;99291.38;4997269;28;19952;-82
2022/11/05 02:42:12;;;;;;;;;;;;;;;8.06;100.00;99286.28;4987605;28;19918;-83
2022/11/05 02:44:44;;;;;;;;;;;;;;;8.09;100.00;99284.66;4975820;28;20272;-81
2022/11/05 02:47:27;;;;;;;;;;;;;;;8.08;100.00;99267.28;4993311;28;19925;-82
2022/11/05 02:49:53;;;;;;;;;;;;;;;8.07;100.00;99279.53;5012143;28;19918;-82
2022/11/05 02:52:24;;;;;;;;;;;;;;;8.05;100.00;99279.19;5006487;28;20017;-82
2022/11/05 02:54:50;;;;;;;;;;;;;;;8.04;100.00;99283.19;4995862;28;19972;-82
2022/11/05 02:57:15;;;;;;;;;;;;;;;8.04;100.00;99266.63;4993598;28;20282;-82
2022/11/05 02:59:40;;;;;;;;;;;;;;;8.05;100.00;99279.19;4993162;28;19965;-83
2022/11/05 03:02:06;;;;;;;;;;;;;;;8.05;100.00;99278.44;4984061;28;19941;-82
2022/11/05 03:04:31;;;;;;;;;;;;;;;8.03;100.00;99287.16;4985817;28;20371;-82
2022/11/05 03:07:02;;;;;;;;;;;;;;;8.05;100.00;99284.72;4973116;28;20375;-83
2022/11/05 03:09:27;;;;;;;;;;;;;;;8.09;100.00;99282.63;4991237;28;19914;-82
2022/11/05 03:12:11;;;;;;;;;;;;;;;8.12;100.00;99284.53;4979706;28;19972;-82
2022/11/05 03:14:39;;;;;;;;;;;;;;;8.12;100.00;99279.00;4982174;28;19920;-82
2022/11/05 03:17:10;;;;;;;;;;;;;;;8.14;100.00;99282.09;4974850;28;20024;-83
2022/11/05 03:19:38;;;;;;;;;;;;;;;8.15;100.00;99293.91;4973394;28;19918;-83
2022/11/05 03:22:07;;;;;;;;;;;;;;;8.19;100.00;99295.38;4956060;28;19925;-83
2022/11/05 03:24:33;;;;;;;;;;;;;;;8.22;100.00;99294.50;4969015;28;19913;-82
2022/11/05 03:27:08;;;;;;;;;;;;;;;8.22;100.00;99288.19;4957245;28;19921;-82
2022/11/05 03:29:38;;;;;;;;;;;;;;;8.22;100.00;99283.44;4965208;28;20399;-82
2022/11/05 03:32:03;;;;;;;;;;;;;;;8.23;100.00;99285.00;4969679;28;19928;-82
2022/11/05 03:34:39;;;;;;;;;;;;;;;8.30;100.00;99295.09;4962839;28;19913;-82
2022/11/05 03:37:04;;;;;;;;;;;;;;;8.27;100.00;99299.47;4959120;28;19918;-83
2022/11/05 03:39:35;;;;;;;;;;;;;;;8.30;100.00;99312.44;4988037;28;19922;-81
2022/11/05 03:42:00;;;;;;;;;;;;;;;8.33;100.00;99328.13;4973183;28;20012;-82
2022/11/05 03:44:27;;;;;;;;;;;;;;;8.33;100.00;99310.81;4981972;28;20036;-82
2022/11/05 03:46:52;;;;;;;;;;;;;;;8.33;100.00;99325.38;4938860;28;20317;-82
2022/11/05 03:49:19;;;;;;;;;;;;;;;8.35;100.00;99327.72;4955995;28;20004;-82
2022/11/05 03:51:47;;;;;;;;;;;;;;;8.33;100.00;99328.13;4982575;28;19961;-82
2022/11/05 03:54:12;;;;;;;;;;;;;;;8.36;100.00;99326.50;4962652;28;19917;-82
2022/11/05 03:56:44;;;;;;;;;;;;;;;8.33;100.00;99321.84;4962453;28;19968;-81
2022/11/05 03:59:09;;;;;;;;;;;;;;;8.32;100.00;99304.50;4972485;28;19918;-82
2022/11/05 04:01:35;;;;;;;;;;;;;;;8.32;100.00;99298.97;4967046;28;19973;-82
2022/11/05 04:04:00;;;;;;;;;;;;;;;8.32;100.00;99298.97;4979913;28;19921;-82
2022/11/05 04:14:38;;;;;;;;;;;;;;;8.25;100.00;99290.84;4984799;28;19918;-82
2022/11/05 04:17:07;;;;;;;;;;;;;;;8.22;100.00;99288.97;4991698;28;19924;-82
2022/11/05 04:25:01;;;;;;;;;;;;;;;8.26;100.00;99306.22;4972236;28;19914;-83
2022/11/05 04:27:27;;;;;;;;;;;;;;;8.29;100.00;99316.41;4990063;28;20338;-83
2022/11/05 04:32:36;;;;;;;;;;;;;;;8.27;100.00;99313.28;4979016;28;20299;-81
2022/11/05 04:35:01;;;;;;;;;;;;;;;8.26;100.00;99314.50;4981906;28;19918;-82
2022/11/05 04:37:27;;;;;;;;;;;;;;;8.22;100.00;99299.25;4983471;28;19924;-81
2022/11/05 04:39:52;;;;;;;;;;;;;;;8.24;100.00;99313.41;4970347;28;20457;-81
2022/11/05 04:42:17;;;;;;;;;;;;;;;8.26;100.00;99306.22;4957308;28;19918;-81
2022/11/05 04:44:43;;;;;;;;;;;;;;;8.24;100.00;99302.34;4952823;28;19918;-80
2022/11/05 04:47:08;;;;;;;;;;;;;;;8.19;100.00;99317.47;4970964;28;20025;-81
2022/11/05 04:49:33;;;;;;;;;;;;;;;8.16;100.00;99317.59;4972331;28;19924;-81
2022/11/05 04:51:59;;;;;;;;;;;;;;;8.13;100.00;99316.44;4988795;28;19940;-81
2022/11/05 04:54:24;;;;;;;;;;;;;;;8.11;100.00;99313.38;4970941;28;19917;-81
2022/11/05 04:56:50;;;;;;;;;;;;;;;8.10;100.00;99314.56;4973587;28;20025;-81
2022/11/05 04:59:15;;;;;;;;;;;;;;;8.07;100.00;99309.16;4981374;28;19917;-81
2022/11/05 05:01:40;;;;;;;;;;;;;;;8.06;100.00;99326.94;4975617;28;19918;-81
2022/11/05 05:04:06;;;;;;;;;;;;;;;8.04;100.00;99330.16;4975146;28;19974;-81
2022/11/05 05:06:31;;;;;;;;;;;;;;;8.05;100.00;99339.22;4965539;28;20059;-81
2022/11/05 05:08:56;;;;;;;;;;;;;;;8.07;100.00;99336.78;4984188;28;19921;-81
2022/11/05 05:11:22;;;;;;;;;;;;;;;8.04;100.00;99335.66;4968296;28;20368;-82
2022/11/05 05:13:47;;;;;;;;;;;;;;;8.01;100.00;99331.00;4968176;28;19914;-82
2022/11/05 05:16:19;;;;;;;;;;;;;;;8.01;100.00;99328.22;4963099;28;20430;-82
2022/11/05 05:18:44;;;;;;;;;;;;;;;8.00;100.00;99343.28;4944202;28;19917;-82
2022/11/05 05:23:53;;;;;;;;;;;;;;;8.01;100.00;99366.16;4974664;28;20339;-82
2022/11/05 05:26:19;;;;;;;;;;;;;;;8.02;100.00;99382.25;4980153;28;19918;-81
2022/11/05 05:28:44;;;;;;;;;;;;;;;8.06;100.00;99382.94;4953032;28;19922;-82
2022/11/05 05:31:09;;;;;;;;;;;;;;;8.07;100.00;99370.69;4977645;28;19922;-82
2022/11/05 05:33:35;;;;;;;;;;;;;;;8.12;100.00;99377.69;5010584;28;19928;-80
2022/11/05 05:36:01;;;;;;;;;;;;;;;8.11;100.00;99382.41;4973323;28;19926;-81
2022/11/05 05:38:27;;;;;;;;;;;;;;;8.12;100.00;99383.19;4983863;28;19932;-81
2022/11/05 05:40:55;;;;;;;;;;;;;;;8.11;100.00;99371.38;4962447;28;20012;-81
2022/11/05 05:43:21;;;;;;;;;;;;;;;8.09;100.00;99371.03;4977099;28;19918;-81
2022/11/05 05:45:46;;;;;;;;;;;;;;;8.08;100.00;99377.78;4992988;28;19977;-81
2022/11/05 05:48:11;;;;;;;;;;;;;;;8.05;100.00;99373.09;4975906;28;19925;-81
2022/11/05 05:50:37;;;;;;;;;;;;;;;8.06;100.00;99377.41;4975080;28;19968;-81
2022/11/05 05:53:05;;;;;;;;;;;;;;;8.06;100.00;99380.19;4992068;28;19928;-81
2022/11/05 05:55:31;;;;;;;;;;;;;;;8.07;100.00;99397.53;4963312;28;20310;-81
2022/11/05 05:57:56;;;;;;;;;;;;;;;8.08;100.00;99419.22;4991422;28;20041;-81
2022/11/05 06:00:21;;;;;;;;;;;;;;;8.09;100.00;99412.44;4992636;28;19979;-81
2022/11/05 06:02:47;;;;;;;;;;;;;;;8.13;100.00;99406.84;4991498;28;19925;-79
2022/11/05 06:05:12;;;;;;;;;;;;;;;8.15;100.00;99407.97;4991377;28;19917;-81
2022/11/05 06:07:38;;;;;;;;;;;;;;;8.17;100.00;99402.75;4975547;28;19972;-81
2022/11/05 06:10:03;;;;;;;;;;;;;;;8.18;100.00;99412.59;4994321;28;19917;-81
2022/11/05 06:12:28;;;;;;;;;;;;;;;8.22;100.00;99426.31;4992012;28;19918;-81
2022/11/05 06:14:54;;;;;;;;;;;;;;;8.24;100.00;99419.16;4983238;28;20272;-82
2022/11/05 06:17:19;;;;;;;;;;;;;;;8.27;100.00;99440.41;4973463;28;20051;-81
2022/11/05 06:19:45;;;;;;;;;;;;;;;8.32;100.00;99430.84;4989527;28;20020;-82
2022/11/05 06:22:11;;;;;;;;;;;;;;;8.34;100.00;99445.75;4992794;28;19921;-81
2022/11/05 06:24:36;;;;;;;;;;;;;;;8.39;100.00;99459.03;4977879;28;19917;-81
2022/11/05 06:27:04;;;;;;;;;;;;;;;8.37;100.00;99439.34;4971535;28;19925;-82
2022/11/05 06:29:29;;;;;;;;;;;;;;;8.42;100.00;99444.34;4987421;28;19934;-81
2022/11/05 06:31:54;;;;;;;;;;;;;;;8.45;100.00;99450.22;4986593;28;20005;-82
2022/11/05 06:34:20;;;;;;;;;;;;;;;8.46;100.00;99451.75;4970157;28;20421;-81
2022/11/05 06:36:45;;;;;;;;;;;;;;;8.46;100.00;99451.75;4964528;28;19925;-82
2022/11/05 06:39:11;;;;;;;;;;;;;;;8.49;100.00;99475.78;4987993;28;19926;-82
2022/11/05 06:41:36;;;;;;;;;;;;;;;8.47;100.00;99465.16;4985177;28;19921;-81
2022/11/05 06:44:01;;;;;;;;;;;;;;;8.48;100.00;99471.47;4977687;28;19918;-81
2022/11/05 06:46:27;;;;;;;;;;;;;;;8.51;100.00;99476.09;4971159;28;20375;-80
2022/11/05 06:48:52;;;;;;;;;;;;;;;8.51;100.00;99474.13;4948760;28;19948;-81
2022/11/05 06:51:18;;;;;;;;;;;;;;;8.50;100.00;99455.97;4980439;28;20287;-80
2022/11/05 06:53:43;;;;;;;;;;;;;;;8.54;100.00;99444.81;4981275;28;20044;-81
2022/11/05 06:56:09;;;;;;;;;;;;;;;8.57;100.00;99457.78;4977907;28;20084;-80
2022/11/05 06:58:34;;;;;;;;;;;;;;;8.60;100.00;99468.75;4984874;28;19925;-81
2022/11/05 07:01:07;;;;;;;;;;;;;;;8.61;100.00;99470.31;4966925;28;19918;-80
2022/11/05 07:03:33;;;;;;;;;;;;;;;8.64;100.00;99468.66;4966529;28;20371;-80
2022/11/05 07:05:59;;;;;;;;;;;;;;;8.63;100.00;99473.41;4980658;28;19925;-82
2022/11/05 07:08:25;;;;;;;;;;;;;;;8.66;100.00;99471.72;4969097;28;19922;-82
2022/11/05 07:10:50;;;;;;;;;;;;;;;8.68;100.00;99474.84;4980327;28;20368;-80
2022/11/05 07:13:16;;;;;;;;;;;;;;;8.71;100.00;99473.97;4980830;28;20374;-80
2022/11/05 07:15:41;;;;;;;;;;;;;;;8.77;100.00;99477.75;4979251;28;20371;-79
2022/11/05 07:18:08;;;;;;;;;;;;;;;8.79;100.00;99464.25;4981073;28;19921;-80
2022/11/05 07:20:33;;;;;;;;;;;;;;;8.84;100.00;99483.09;4949461;28;19931;-80
2022/11/05 07:23:00;;;;;;;;;;;;;;;8.84;100.00;99483.09;4956491;28;19921;-82
2022/11/05 07:25:25;;;;;;;;;;;;;;;8.91;100.00;99493.94;4979002;28;19918;-82
2022/11/05 07:27:51;;;;;;;;;;;;;;;8.92;100.00;99495.50;4978342;28;20405;-81
2022/11/05 07:30:16;;;;;;;;;;;;;;;8.96;100.00;99501.69;4948200;28;19970;-81
2022/11/05 07:32:42;;;;;;;;;;;;;;;8.97;100.00;99499.72;4948820;28;20272;-80
2022/11/05 07:35:07;;;;;;;;;;;;;;;9.02;100.00;99494.41;4965726;28;19926;-80
2022/11/05 07:37:33;;;;;;;;;;;;;;;9.04;100.00;99505.81;4986027;28;19928;-80
2022/11/05 07:39:58;;;;;;;;;;;;;;;9.06;100.00;99500.59;4969653;28;20308;-80
2022/11/05 07:42:24;;;;;;;;;;;;;;;9.12;100.00;99500.84;4995871;28;19917;-80
2022/11/05 07:44:49;;;;;;;;;;;;;;;9.13;100.00;99496.88;4947054;28;19941;-82
2022/11/05 07:47:14;;;;;;;;;;;;;;;9.16;100.00;99491.22;4988415;28;19926;-80
2022/11/05 07:49:40;;;;;;;;;;;;;;;9.16;100.00;99485.69;4963701;28;19918;-81
2022/11/05 07:52:05;;;;;;;;;;;;;;;9.19;100.00;99497.88;4967775;28;19948;-81
2022/11/05 07:54:30;;;;;;;;;;;;;;;9.23;100.00;99485.47;4980013;28;19921;-81
2022/11/05 07:56:56;;;;;;;;;;;;;;;9.30;100.00;99474.19;4982772;28;20418;-80
2022/11/05 07:59:21;;;;;;;;;;;;;;;9.35;100.00;99484.72;4960461;28;19918;-80
2022/11/05 08:01:47;;;;;;;;;;;;;;;9.40;100.00;99488.16;4983128;28;19925;-81
2022/11/05 08:04:12;;;;;;;;;;;;;;;9.46;100.00;99476.09;4961524;28;19926;-80
2022/11/05 08:06:40;;;;;;;;;;;;;;;9.46;100.00;99478.09;4979014;28;19918;-82
2022/11/05 08:09:05;;;;;;;;;;;;;;;9.51;100.00;99488.59;4955550;28;19993;-82
2022/11/05 08:11:31;;;;;;;;;;;;;;;9.55;100.00;99483.72;4990848;28;20044;-82
2022/11/05 08:13:56;;;;;;;;;;;;;;;9.57;100.00;99500.66;4996964;28;19922;-83
2022/11/05 08:16:21;;;;;;;;;;;;;;;9.61;100.00;99501.34;4984814;28;20426;-82
2022/11/05 08:18:48;;;;;;;;;;;;;;;9.64;100.00;99500.44;4960748;28;20328;-82
2022/11/05 08:21:13;;;;;;;;;;;;;;;9.67;100.00;99499.56;4984410;28;20365;-82
2022/11/05 08:23:40;;;;;;;;;;;;;;;9.68;100.00;99498.34;4958454;28;19917;-82
2022/11/05 08:26:05;;;;;;;;;;;;;;;9.68;100.00;99485.28;4963878;28;20454;-82
2022/11/05 08:28:31;;;;;;;;;;;;;;;9.68;100.00;99485.28;4979506;28;19972;-79
2022/11/05 08:30:56;;;;;;;;;;;;;;;9.72;100.00;99479.63;4970441;28;19925;-82
2022/11/05 08:33:22;;;;;;;;;;;;;;;9.73;100.00;99476.41;4972388;28;20004;-82
2022/11/05 08:35:47;;;;;;;;;;;;;;;9.76;100.00;99463.66;4985849;28;20008;-82
2022/11/05 08:38:14;;;;;;;;;;;;;;;9.81;100.00;99465.88;4985929;28;20009;-81
2022/11/05 08:40:39;;;;;;;;;;;;;;;9.85;100.00;99461.00;4983100;28;19922;-83
2022/11/05 08:43:05;;;;;;;;;;;;;;;9.90;100.00;99468.75;4980512;28;20025;-82
2022/11/05 08:45:31;;;;;;;;;;;;;;;9.93;100.00;99472.59;4965379;28;19925;-82
2022/11/05 08:48:03;;;;;;;;;;;;;;;9.97;100.00;99459.41;4986543;28;19963;-81
2022/11/05 08:50:29;;;;;;;;;;;;;;;10.05;100.00;99469.03;4986163;28;20446;-82
2022/11/05 08:52:54;;;;;;;;;;;;;;;10.07;100.00;99464.59;4978137;28;20021;-80
2022/11/05 08:55:20;;;;;;;;;;;;;;;10.14;100.00;99467.13;4958607;28;19922;-81
2022/11/05 08:57:45;;;;;;;;;;;;;;;10.12;100.00;99469.56;4987384;28;19960;-80
2022/11/05 09:00:11;;;;;;;;;;;;;;;10.16;100.00;99453.63;4985177;28;19921;-80
2022/11/05 09:02:37;;;;;;;;;;;;;;;10.29;100.00;99459.91;4983299;28;19918;-79
2022/11/05 09:05:02;;;;;;;;;;;;;;;10.34;100.00;99464.09;4986207;28;20358;-79
2022/11/05 09:07:28;;;;;;;;;;;;;;;10.41;100.00;99460.31;4957548;28;20422;-80
2022/11/05 09:09:53;;;;;;;;;;;;;;;10.50;100.00;99471.47;4984158;28;20383;-80
2022/11/05 09:12:18;;;;;;;;;;;;;;;10.60;100.00;99459.22;4968663;28;19922;-81
2022/11/05 09:14:44;;;;;;;;;;;;;;;10.58;100.00;99475.53;4954227;28;20015;-80
2022/11/05 09:17:19;;;;;;;;;;;;;;;10.53;100.00;99465.03;4947941;28;19954;-81
2022/11/05 09:19:44;;;;;;;;;;;;;;;10.43;100.00;99483.59;4989539;28;19925;-81
2022/11/05 09:22:11;;;;;;;;;;;;;;;10.46;100.00;99493.78;4993647;28;19922;-80
2022/11/05 09:24:40;;;;;;;;;;;;;;;10.39;100.00;99498.81;4977379;28;19913;-81
2022/11/05 09:27:06;;;;;;;;;;;;;;;10.36;100.00;99494.91;4975309;28;19925;-81
2022/11/05 09:29:31;;;;;;;;;;;;;;;10.38;100.00;99500.03;4973776;28;19918;-81
2022/11/05 09:31:57;;;;;;;;;;;;;;;10.40;100.00;99511.41;4992515;28;20181;-81
2022/11/05 09:34:22;;;;;;;;;;;;;;;10.37;100.00;99517.88;4992479;28;19976;-81
2022/11/05 09:36:47;;;;;;;;;;;;;;;10.39;100.00;99532.06;4992575;28;19925;-81
2022/11/05 09:39:13;;;;;;;;;;;;;;;10.39;100.00;99518.22;4990390;28;19968;-81
2022/11/05 09:41:38;;;;;;;;;;;;;;;10.45;100.00;99513.63;4992313;28;20349;-81
2022/11/05 09:44:23;;;;;;;;;;;;;;;10.49;100.00;99515.06;4992795;28;20362;-80
2022/11/05 09:46:49;;;;;;;;;;;;;;;10.62;100.00;99515.03;4976368;28;20359;-81
2022/11/05 09:49:19;;;;;;;;;;;;;;;10.64;100.00;99521.66;4959638;28;19944;-81
2022/11/05 09:51:45;;;;;;;;;;;;;;;10.73;100.00;99529.28;4976990;28;20367;-81
2022/11/05 09:54:10;;;;;;;;;;;;;;;10.70;100.00;99536.50;4975931;28;20012;-81
2022/11/05 09:56:36;;;;;;;;;;;;;;;10.71;100.00;99523.44;4976792;28;19917;-82
2022/11/05 09:59:04;;;;;;;;;;;;;;;10.81;100.00;99544.44;4974571;28;20426;-81
2022/11/05 10:01:31;;;;;;;;;;;;;;;10.83;100.00;99532.91;4976527;28;19922;-81
2022/11/05 10:03:57;;;;;;;;;;;;;;;10.82;100.00;99514.72;4943819;28;20379;-81
2022/11/05 10:06:23;;;;;;;;;;;;;;;10.88;100.00;99526.78;4973165;28;20334;-81
2022/11/05 10:08:51;;;;;;;;;;;;;;;10.97;100.00;99519.28;4976200;28;20012;-82
2022/11/05 10:11:21;;;;;;;;;;;;;;;10.90;100.00;99547.31;4973041;28;19914;-81
2022/11/05 10:13:47;;;;;;;;;;;;;;;10.92;100.00;99522.63;4979398;28;19917;-81
2022/11/05 10:16:19;;;;;;;;;;;;;;;10.88;100.00;99524.75;4972281;28;19914;-81
2022/11/05 10:18:46;;;;;;;;;;;;;;;10.95;100.00;99526.53;4974159;28;19917;-82
2022/11/05 10:21:14;;;;;;;;;;;;;;;11.02;100.00;99529.81;4956798;28;19984;-82
2022/11/05 10:23:39;;;;;;;;;;;;;;;11.05;100.00;99520.56;4956750;28;19929;-83
2022/11/05 10:26:06;;;;;;;;;;;;;;;11.04;100.00;99532.91;4983711;28;19914;-82
2022/11/05 10:28:32;;;;;;;;;;;;;;;11.07;100.00;99522.91;4975911;28;20009;-83
2022/11/05 10:30:59;;;;;;;;;;;;;;;11.11;100.00;99529.09;4975959;28;19925;-82
2022/11/05 10:33:29;;;;;;;;;;;;;;;11.05;100.00;99530.91;4975924;28;20388;-82
2022/11/05 10:35:54;;;;;;;;;;;;;;;11.08;100.00;99518.91;4958987;28;19921;-81
2022/11/05 10:38:20;;;;;;;;;;;;;;;11.13;100.00;99519.09;4975632;28;19914;-81
2022/11/05 10:40:48;;;;;;;;;;;;;;;11.05;100.00;99520.56;4993452;28;19918;-81
2022/11/05 10:43:18;;;;;;;;;;;;;;;11.09;100.00;99529.53;4975400;28;19914;-81
2022/11/05 10:45:59;;;;;;;;;;;;;;;11.07;100.00;99520.91;4974310;28;19918;-81
2022/11/05 10:48:37;;;;;;;;;;;;;;;11.02;100.00;99521.50;4959432;28;20272;-80
2022/11/05 10:51:02;;;;;;;;;;;;;;;11.10;100.00;99544.97;4992923;28;19927;-81
2022/11/05 10:53:29;;;;;;;;;;;;;;;11.08;100.00;99544.66;4992605;28;19914;-81
2022/11/05 10:55:57;;;;;;;;;;;;;;;11.04;100.00;99544.00;4973739;28;19968;-81
2022/11/05 10:58:26;;;;;;;;;;;;;;;11.05;100.00;99540.00;4959505;28;19922;-80
2022/11/05 11:00:51;;;;;;;;;;;;;;;11.04;100.00;99532.91;4993054;28;19921;-81
2022/11/05 11:03:29;;;;;;;;;;;;;;;11.03;100.00;99534.16;4992365;28;20383;-81
2022/11/05 11:06:01;;;;;;;;;;;;;;;11.04;100.00;99540.47;4990826;28;20016;-81
2022/11/05 11:08:27;;;;;;;;;;;;;;;11.04;100.00;99543.25;4975198;28;19924;-81
2022/11/05 11:10:54;;;;;;;;;;;;;;;11.06;100.00;99546.34;4984976;28;19913;-81
2022/11/05 11:13:20;;;;;;;;;;;;;;;11.07;100.00;99540.34;4997045;28;19967;-81
2022/11/05 11:15:45;;;;;;;;;;;;;;;11.14;100.00;99559.50;4982686;28;19918;-81
2022/11/05 11:18:23;;;;;;;;;;;;;;;11.15;100.00;99543.63;4939624;28;19921;-81
2022/11/05 11:20:49;;;;;;;;;;;;;;;11.20;100.00;99543.81;4973271;28;19918;-81
2022/11/05 11:23:14;;;;;;;;;;;;;;;11.22;100.00;99537.81;4972911;28;20279;-81
2022/11/05 11:25:49;;;;;;;;;;;;;;;11.21;100.00;99542.59;4958358;28;19914;-81
2022/11/05 11:28:19;;;;;;;;;;;;;;;11.23;100.00;99537.38;4974848;28;20365;-81
2022/11/05 11:30:46;;;;;;;;;;;;;;;11.26;100.00;99526.56;4992025;28;19917;-81
2022/11/05 11:33:11;;;;;;;;;;;;;;;11.24;100.00;99530.56;4974899;28;19966;-81
2022/11/05 11:35:37;;;;;;;;;;;;;;;11.26;100.00;99523.78;4956687;28;19918;-82
2022/11/05 11:38:02;;;;;;;;;;;;;;;11.24;100.00;99533.34;4974667;28;19928;-82
2022/11/05 11:40:34;;;;;;;;;;;;;;;11.21;100.00;99531.47;4958678;28;19917;-82
2022/11/05 11:43:02;;;;;;;;;;;;;;;11.23;100.00;99540.13;4958695;28;19918;-80
2022/11/05 11:45:37;;;;;;;;;;;;;;;11.22;100.00;99540.59;4941340;28;20242;-81
2022/11/05 11:48:04;;;;;;;;;;;;;;;11.21;100.00;99542.59;4972727;28;19918;-80
2022/11/05 11:50:30;;;;;;;;;;;;;;;11.24;100.00;99546.47;4955374;28;19918;-81
2022/11/05 11:53:29;;;;;;;;;;;;;;;11.19;100.00;99550.59;4955526;28;19922;-80
2022/11/05 11:55:54;;;;;;;;;;;;;;;11.27;100.00;99556.66;4929462;28;20023;-80
2022/11/05 11:58:20;;;;;;;;;;;;;;;11.26;100.00;99548.78;4965745;28;19989;-80
2022/11/05 12:00:47;;;;;;;;;;;;;;;11.23;100.00;99547.69;4955277;28;20367;-81
2022/11/05 12:03:18;;;;;;;;;;;;;;;11.21;100.00;99548.13;4939242;28;19961;-81
2022/11/05 12:05:49;;;;;;;;;;;;;;;11.21;100.00;99548.13;4939251;28;19918;-80
2022/11/05 12:08:23;;;;;;;;;;;;;;;11.24;100.00;99552.03;4988610;28;20488;-81
2022/11/05 12:10:52;;;;;;;;;;;;;;;11.26;100.00;99570.97;5002594;28;19917;-81
2022/11/05 12:13:17;;;;;;;;;;;;;;;11.26;100.00;99559.88;4998059;28;19918;-81
2022/11/05 12:15:43;;;;;;;;;;;;;;;11.29;100.00;99554.19;4997476;28;19928;-81
2022/11/05 12:18:12;;;;;;;;;;;;;;;11.31;100.00;99559.31;5000481;28;19940;-81
2022/11/05 12:20:50;;;;;;;;;;;;;;;11.28;100.00;99547.13;4962073;28;19996;-82
2022/11/05 12:23:35;;;;;;;;;;;;;;;11.24;100.00;99566.66;4995734;28;19926;-80
2022/11/05 12:26:19;;;;;;;;;;;;;;;11.24;100.00;99569.44;4955312;28;20318;-81
2022/11/05 12:28:44;;;;;;;;;;;;;;;11.27;100.00;99578.09;4992321;28;19968;-81
2022/11/05 12:31:29;;;;;;;;;;;;;;;11.26;100.00;99587.66;4995435;28;19922;-81
2022/11/05 12:33:56;;;;;;;;;;;;;;;11.19;100.00;99572.81;4995559;28;20065;-82
2022/11/05 12:36:26;;;;;;;;;;;;;;;11.14;100.00;99609.47;4995434;28;19960;-80
2022/11/05 12:38:51;;;;;;;;;;;;;;;11.14;100.00;99603.13;4960147;28;19925;-81
2022/11/05 12:41:21;;;;;;;;;;;;;;;11.13;100.00;99591.25;4995228;28;19921;-80
2022/11/05 12:43:55;;;;;;;;;;;;;;;11.13;100.00;99594.03;4995338;28;19917;-81
2022/11/05 12:46:39;;;;;;;;;;;;;;;11.15;100.00;99616.59;4977826;28;19924;-81
2022/11/05 12:49:31;;;;;;;;;;;;;;;11.16;100.00;99607.00;4993311;28;19968;-81
2022/11/05 12:52:09;;;;;;;;;;;;;;;11.17;100.00;99613.34;4964823;28;20406;-80
2022/11/05 12:54:44;;;;;;;;;;;;;;;11.14;100.00;99617.03;4961648;28;19917;-81
2022/11/05 12:57:10;;;;;;;;;;;;;;;11.11;100.00;99607.59;4993520;28;19929;-81
2022/11/05 12:59:36;;;;;;;;;;;;;;;11.11;100.00;99615.94;4977489;28;19917;-82
2022/11/05 13:02:11;;;;;;;;;;;;;;;11.08;100.00;99607.75;4977342;28;19952;-80
2022/11/05 13:04:36;;;;;;;;;;;;;;;11.06;100.00;99615.72;4994501;28;19973;-81
2022/11/05 13:07:03;;;;;;;;;;;;;;;11.07;100.00;99626.38;4994181;28;20008;-81
2022/11/05 13:09:40;;;;;;;;;;;;;;;11.13;100.00;99619.00;4943800;28;20425;-82
2022/11/05 13:12:07;;;;;;;;;;;;;;;11.10;100.00;99614.38;5014259;28;20133;-81
2022/11/05 13:14:34;;;;;;;;;;;;;;;11.08;100.00;99614.03;4980559;28;19913;-81
2022/11/05 13:17:09;;;;;;;;;;;;;;;11.10;100.00;99619.94;4993143;28;19913;-82
2022/11/05 13:19:46;;;;;;;;;;;;;;;11.06;100.00;99613.72;4977194;28;19924;-81
2022/11/05 13:22:15;;;;;;;;;;;;;;;11.08;100.00;99627.91;4993328;28;20004;-81
2022/11/05 13:24:50;;;;;;;;;;;;;;;11.07;100.00;99631.94;4992749;28;19914;-81
2022/11/05 13:27:34;;;;;;;;;;;;;;;11.06;100.00;99624.81;4961149;28;19992;-81